sensor_id;sensor_type;location;lat;lon;timestamp;temperature;humidity
47174;DHT22;36730;49.036;9.094;2023-02-12T00:01:32;23.00;46.40
47174;DHT22;36730;49.036;9.094;2023-02-12T00:03:57;23.00;46.40
47174;DHT22;36730;49.036;9.094;2023-02-12T00:06:23;23.00;46.40
47174;DHT22;36730;49.036;9.094;2023-02-12T00:08:49;23.00;46.40
47174;DHT22;36730;49.036;9.094;2023-02-12T00:11:16;23.00;46.40
47174;DHT22;36730;49.036;9.094;2023-02-12T00:13:42;22.90;46.40
47174;DHT22;36730;49.036;9.094;2023-02-12T00:16:09;22.90;46.50
47174;DHT22;36730;49.036;9.094;2023-02-12T00:18:35;22.90;46.40
47174;DHT22;36730;49.036;9.094;2023-02-12T00:21:01;22.90;46.40
47174;DHT22;36730;49.036;9.094;2023-02-12T00:23:27;22.90;46.40
47174;DHT22;36730;49.036;9.094;2023-02-12T00:25:53;22.90;46.40
47174;DHT22;36730;49.036;9.094;2023-02-12T00:28:18;22.90;46.40
47174;DHT22;36730;49.036;9.094;2023-02-12T00:30:44;22.90;46.40
47174;DHT22;36730;49.036;9.094;2023-02-12T00:33:09;22.90;46.50
47174;DHT22;36730;49.036;9.094;2023-02-12T00:35:35;22.90;46.40
47174;DHT22;36730;49.036;9.094;2023-02-12T00:38:00;22.90;46.50
47174;DHT22;36730;49.036;9.094;2023-02-12T00:40:26;22.90;46.40
47174;DHT22;36730;49.036;9.094;2023-02-12T00:42:51;22.90;46.40
47174;DHT22;36730;49.036;9.094;2023-02-12T00:45:17;22.90;46.40
47174;DHT22;36730;49.036;9.094;2023-02-12T00:47:42;22.90;46.40
47174;DHT22;36730;49.036;9.094;2023-02-12T00:50:08;22.90;46.50
47174;DHT22;36730;49.036;9.094;2023-02-12T00:52:33;22.90;46.50
47174;DHT22;36730;49.036;9.094;2023-02-12T00:54:59;22.90;46.50
47174;DHT22;36730;49.036;9.094;2023-02-12T00:57:24;22.90;46.50
47174;DHT22;36730;49.036;9.094;2023-02-12T00:59:49;22.90;46.60
47174;DHT22;36730;49.036;9.094;2023-02-12T01:02:15;22.90;46.50
47174;DHT22;36730;49.036;9.094;2023-02-12T01:04:42;22.90;46.40
47174;DHT22;36730;49.036;9.094;2023-02-12T01:07:07;22.90;46.50
47174;DHT22;36730;49.036;9.094;2023-02-12T01:09:33;22.90;46.50
47174;DHT22;36730;49.036;9.094;2023-02-12T01:11:58;22.90;46.60
47174;DHT22;36730;49.036;9.094;2023-02-12T01:14:24;22.90;46.50
47174;DHT22;36730;49.036;9.094;2023-02-12T01:16:49;22.90;46.50
47174;DHT22;36730;49.036;9.094;2023-02-12T01:19:15;22.90;46.50
47174;DHT22;36730;49.036;9.094;2023-02-12T01:21:40;22.90;46.50
47174;DHT22;36730;49.036;9.094;2023-02-12T01:24:06;22.90;46.60
47174;DHT22;36730;49.036;9.094;2023-02-12T01:26:31;22.90;46.50
47174;DHT22;36730;49.036;9.094;2023-02-12T01:28:58;22.80;46.50
47174;DHT22;36730;49.036;9.094;2023-02-12T01:31:26;22.80;46.50
47174;DHT22;36730;49.036;9.094;2023-02-12T01:33:53;22.80;46.50
47174;DHT22;36730;49.036;9.094;2023-02-12T01:36:19;22.90;46.60
47174;DHT22;36730;49.036;9.094;2023-02-12T01:38:45;22.80;46.60
47174;DHT22;36730;49.036;9.094;2023-02-12T01:41:14;22.80;46.50
47174;DHT22;36730;49.036;9.094;2023-02-12T01:43:41;22.90;46.60
47174;DHT22;36730;49.036;9.094;2023-02-12T01:46:07;22.80;46.60
47174;DHT22;36730;49.036;9.094;2023-02-12T01:48:35;22.80;46.50
47174;DHT22;36730;49.036;9.094;2023-02-12T01:51:01;22.80;46.50
47174;DHT22;36730;49.036;9.094;2023-02-12T01:53:34;22.80;46.60
47174;DHT22;36730;49.036;9.094;2023-02-12T01:56:01;22.80;46.50
47174;DHT22;36730;49.036;9.094;2023-02-12T01:58:28;22.80;46.60
47174;DHT22;36730;49.036;9.094;2023-02-12T02:00:55;22.80;46.60
47174;DHT22;36730;49.036;9.094;2023-02-12T02:03:20;22.80;46.50
47174;DHT22;36730;49.036;9.094;2023-02-12T02:05:48;22.80;46.60
47174;DHT22;36730;49.036;9.094;2023-02-12T02:08:18;22.70;46.60
47174;DHT22;36730;49.036;9.094;2023-02-12T02:10:44;22.70;46.50
47174;DHT22;36730;49.036;9.094;2023-02-12T02:13:09;22.80;46.60
47174;DHT22;36730;49.036;9.094;2023-02-12T02:15:54;22.70;46.50
47174;DHT22;36730;49.036;9.094;2023-02-12T02:18:33;22.80;46.60
47174;DHT22;36730;49.036;9.094;2023-02-12T02:21:37;22.70;46.50
47174;DHT22;36730;49.036;9.094;2023-02-12T02:23:56;22.70;46.50
47174;DHT22;36730;49.036;9.094;2023-02-12T02:32:00;22.70;46.60
47174;DHT22;36730;49.036;9.094;2023-02-12T02:37:16;22.70;46.60
47174;DHT22;36730;49.036;9.094;2023-02-12T02:39:51;22.70;46.60
47174;DHT22;36730;49.036;9.094;2023-02-12T02:47:11;22.70;46.60
47174;DHT22;36730;49.036;9.094;2023-02-12T02:49:39;22.70;46.60
47174;DHT22;36730;49.036;9.094;2023-02-12T02:52:07;22.70;46.60
47174;DHT22;36730;49.036;9.094;2023-02-12T02:54:39;22.70;46.60
47174;DHT22;36730;49.036;9.094;2023-02-12T02:57:16;22.70;46.60
47174;DHT22;36730;49.036;9.094;2023-02-12T02:59:45;22.70;46.60
47174;DHT22;36730;49.036;9.094;2023-02-12T03:02:22;22.70;46.60
47174;DHT22;36730;49.036;9.094;2023-02-12T03:05:13;22.70;46.60
47174;DHT22;36730;49.036;9.094;2023-02-12T03:07:44;22.70;46.60
47174;DHT22;36730;49.036;9.094;2023-02-12T03:10:11;22.70;46.60
47174;DHT22;36730;49.036;9.094;2023-02-12T03:12:39;22.70;46.60
47174;DHT22;36730;49.036;9.094;2023-02-12T03:17:37;22.70;46.60
47174;DHT22;36730;49.036;9.094;2023-02-12T03:20:05;22.70;46.60
47174;DHT22;36730;49.036;9.094;2023-02-12T03:22:35;22.70;46.60
47174;DHT22;36730;49.036;9.094;2023-02-12T03:27:33;22.70;46.60
47174;DHT22;36730;49.036;9.094;2023-02-12T03:30:00;22.70;46.60
47174;DHT22;36730;49.036;9.094;2023-02-12T03:32:29;22.70;46.60
47174;DHT22;36730;49.036;9.094;2023-02-12T03:35:14;22.70;47.20
47174;DHT22;36730;49.036;9.094;2023-02-12T03:42:55;22.70;46.60
47174;DHT22;36730;49.036;9.094;2023-02-12T03:48:07;22.70;46.60
47174;DHT22;36730;49.036;9.094;2023-02-12T03:52:59;22.70;46.60
47174;DHT22;36730;49.036;9.094;2023-02-12T03:55:25;22.60;46.60
47174;DHT22;36730;49.036;9.094;2023-02-12T03:57:54;22.70;46.60
47174;DHT22;36730;49.036;9.094;2023-02-12T04:00:23;22.70;46.60
47174;DHT22;36730;49.036;9.094;2023-02-12T04:02:50;22.60;46.50
47174;DHT22;36730;49.036;9.094;2023-02-12T04:05:17;22.60;46.50
47174;DHT22;36730;49.036;9.094;2023-02-12T04:07:42;22.70;46.60
47174;DHT22;36730;49.036;9.094;2023-02-12T04:10:08;22.60;46.60
47174;DHT22;36730;49.036;9.094;2023-02-12T04:15:46;22.60;46.60
47174;DHT22;36730;49.036;9.094;2023-02-12T04:18:18;22.60;46.60
47174;DHT22;36730;49.036;9.094;2023-02-12T04:29:04;22.60;46.60
47174;DHT22;36730;49.036;9.094;2023-02-12T04:34:17;22.60;46.60
47174;DHT22;36730;49.036;9.094;2023-02-12T04:36:49;22.60;46.60
47174;DHT22;36730;49.036;9.094;2023-02-12T04:39:19;22.60;46.60
47174;DHT22;36730;49.036;9.094;2023-02-12T04:41:46;22.60;46.60
47174;DHT22;36730;49.036;9.094;2023-02-12T04:44:20;22.60;46.60
47174;DHT22;36730;49.036;9.094;2023-02-12T04:46:46;22.60;46.60
47174;DHT22;36730;49.036;9.094;2023-02-12T04:49:13;22.60;46.60
47174;DHT22;36730;49.036;9.094;2023-02-12T04:51:39;22.60;46.60
47174;DHT22;36730;49.036;9.094;2023-02-12T04:54:04;22.60;46.60
47174;DHT22;36730;49.036;9.094;2023-02-12T04:56:30;22.60;46.60
47174;DHT22;36730;49.036;9.094;2023-02-12T04:58:55;22.60;46.60
47174;DHT22;36730;49.036;9.094;2023-02-12T05:01:22;22.60;46.60
47174;DHT22;36730;49.036;9.094;2023-02-12T05:03:47;22.60;46.60
47174;DHT22;36730;49.036;9.094;2023-02-12T05:06:13;22.60;46.60
47174;DHT22;36730;49.036;9.094;2023-02-12T05:08:38;22.60;46.60
47174;DHT22;36730;49.036;9.094;2023-02-12T05:11:05;22.60;46.60
47174;DHT22;36730;49.036;9.094;2023-02-12T05:13:30;22.60;46.60
47174;DHT22;36730;49.036;9.094;2023-02-12T05:15:56;22.60;46.60
47174;DHT22;36730;49.036;9.094;2023-02-12T05:18:22;22.60;46.60
47174;DHT22;36730;49.036;9.094;2023-02-12T05:20:54;22.60;47.00
47174;DHT22;36730;49.036;9.094;2023-02-12T05:23:19;22.60;46.60
47174;DHT22;36730;49.036;9.094;2023-02-12T05:25:44;22.60;46.60
47174;DHT22;36730;49.036;9.094;2023-02-12T05:28:10;22.60;46.60
47174;DHT22;36730;49.036;9.094;2023-02-12T05:30:35;22.60;46.60
47174;DHT22;36730;49.036;9.094;2023-02-12T05:33:01;22.60;46.60
47174;DHT22;36730;49.036;9.094;2023-02-12T05:35:26;22.60;46.60
47174;DHT22;36730;49.036;9.094;2023-02-12T05:37:52;22.60;46.60
47174;DHT22;36730;49.036;9.094;2023-02-12T05:40:17;22.60;46.60
47174;DHT22;36730;49.036;9.094;2023-02-12T05:42:43;22.60;46.60
47174;DHT22;36730;49.036;9.094;2023-02-12T05:45:08;22.60;46.60
47174;DHT22;36730;49.036;9.094;2023-02-12T05:47:34;22.50;46.60
47174;DHT22;36730;49.036;9.094;2023-02-12T05:49:59;22.60;46.60
47174;DHT22;36730;49.036;9.094;2023-02-12T05:52:25;22.60;46.60
47174;DHT22;36730;49.036;9.094;2023-02-12T05:54:50;22.60;46.60
47174;DHT22;36730;49.036;9.094;2023-02-12T05:57:15;22.60;46.60
47174;DHT22;36730;49.036;9.094;2023-02-12T05:59:41;22.60;46.60
47174;DHT22;36730;49.036;9.094;2023-02-12T06:02:06;22.60;46.60
47174;DHT22;36730;49.036;9.094;2023-02-12T06:04:32;22.60;46.70
47174;DHT22;36730;49.036;9.094;2023-02-12T06:06:58;22.50;46.60
47174;DHT22;36730;49.036;9.094;2023-02-12T06:09:24;22.50;46.60
47174;DHT22;36730;49.036;9.094;2023-02-12T06:11:50;22.50;46.60
47174;DHT22;36730;49.036;9.094;2023-02-12T06:14:16;22.50;46.60
47174;DHT22;36730;49.036;9.094;2023-02-12T06:16:43;22.50;46.60
47174;DHT22;36730;49.036;9.094;2023-02-12T06:19:09;22.60;46.60
47174;DHT22;36730;49.036;9.094;2023-02-12T06:21:35;22.50;46.60
47174;DHT22;36730;49.036;9.094;2023-02-12T06:24:00;22.50;46.60
47174;DHT22;36730;49.036;9.094;2023-02-12T06:26:26;22.50;46.60
47174;DHT22;36730;49.036;9.094;2023-02-12T06:28:52;22.50;46.50
47174;DHT22;36730;49.036;9.094;2023-02-12T06:31:24;22.50;46.60
47174;DHT22;36730;49.036;9.094;2023-02-12T06:33:51;22.50;46.60
47174;DHT22;36730;49.036;9.094;2023-02-12T06:36:17;22.50;46.60
47174;DHT22;36730;49.036;9.094;2023-02-12T06:38:42;22.50;46.60
47174;DHT22;36730;49.036;9.094;2023-02-12T06:41:07;22.50;46.60
47174;DHT22;36730;49.036;9.094;2023-02-12T06:43:33;22.50;46.60
47174;DHT22;36730;49.036;9.094;2023-02-12T06:45:59;22.50;46.60
47174;DHT22;36730;49.036;9.094;2023-02-12T06:48:25;22.50;46.60
47174;DHT22;36730;49.036;9.094;2023-02-12T06:50:50;22.50;46.60
47174;DHT22;36730;49.036;9.094;2023-02-12T06:53:16;22.50;46.60
47174;DHT22;36730;49.036;9.094;2023-02-12T06:55:41;22.50;46.60
47174;DHT22;36730;49.036;9.094;2023-02-12T06:58:06;22.50;46.60
47174;DHT22;36730;49.036;9.094;2023-02-12T07:00:32;22.50;46.60
47174;DHT22;36730;49.036;9.094;2023-02-12T07:02:57;22.50;46.60
47174;DHT22;36730;49.036;9.094;2023-02-12T07:05:23;22.50;46.60
47174;DHT22;36730;49.036;9.094;2023-02-12T07:07:48;22.50;46.60
47174;DHT22;36730;49.036;9.094;2023-02-12T07:10:14;22.50;46.60
47174;DHT22;36730;49.036;9.094;2023-02-12T07:12:39;22.50;46.60
47174;DHT22;36730;49.036;9.094;2023-02-12T07:15:05;22.50;46.60
47174;DHT22;36730;49.036;9.094;2023-02-12T07:17:31;22.50;46.60
47174;DHT22;36730;49.036;9.094;2023-02-12T07:19:56;22.50;46.60
47174;DHT22;36730;49.036;9.094;2023-02-12T07:22:22;22.50;46.60
47174;DHT22;36730;49.036;9.094;2023-02-12T07:24:47;22.50;46.60
47174;DHT22;36730;49.036;9.094;2023-02-12T07:27:13;22.50;46.60
47174;DHT22;36730;49.036;9.094;2023-02-12T07:29:38;22.50;46.60
47174;DHT22;36730;49.036;9.094;2023-02-12T07:32:04;22.50;46.60
47174;DHT22;36730;49.036;9.094;2023-02-12T07:34:30;22.50;46.60
47174;DHT22;36730;49.036;9.094;2023-02-12T07:36:55;22.50;46.60
47174;DHT22;36730;49.036;9.094;2023-02-12T07:39:21;22.50;46.60
47174;DHT22;36730;49.036;9.094;2023-02-12T07:41:46;22.50;46.60
47174;DHT22;36730;49.036;9.094;2023-02-12T07:44:12;22.50;46.60
47174;DHT22;36730;49.036;9.094;2023-02-12T07:46:39;22.50;46.60
47174;DHT22;36730;49.036;9.094;2023-02-12T07:49:05;22.50;46.60
47174;DHT22;36730;49.036;9.094;2023-02-12T07:51:31;22.50;46.50
47174;DHT22;36730;49.036;9.094;2023-02-12T07:53:57;22.50;46.60
47174;DHT22;36730;49.036;9.094;2023-02-12T07:56:24;22.50;46.60
47174;DHT22;36730;49.036;9.094;2023-02-12T07:58:53;22.50;46.50
47174;DHT22;36730;49.036;9.094;2023-02-12T08:01:20;22.50;46.60
47174;DHT22;36730;49.036;9.094;2023-02-12T08:03:46;22.50;46.60
47174;DHT22;36730;49.036;9.094;2023-02-12T08:06:22;22.50;46.50
47174;DHT22;36730;49.036;9.094;2023-02-12T08:08:51;22.50;46.50
47174;DHT22;36730;49.036;9.094;2023-02-12T08:11:17;22.50;46.50
47174;DHT22;36730;49.036;9.094;2023-02-12T08:13:43;22.50;46.60
47174;DHT22;36730;49.036;9.094;2023-02-12T08:16:10;22.50;46.60
47174;DHT22;36730;49.036;9.094;2023-02-12T08:18:35;22.50;46.60
47174;DHT22;36730;49.036;9.094;2023-02-12T08:21:02;22.50;46.60
47174;DHT22;36730;49.036;9.094;2023-02-12T08:23:28;22.50;46.60
47174;DHT22;36730;49.036;9.094;2023-02-12T08:25:53;22.50;46.60
47174;DHT22;36730;49.036;9.094;2023-02-12T08:28:18;22.50;46.50
47174;DHT22;36730;49.036;9.094;2023-02-12T08:30:44;22.50;46.50
47174;DHT22;36730;49.036;9.094;2023-02-12T08:33:09;22.50;46.50
47174;DHT22;36730;49.036;9.094;2023-02-12T08:35:35;22.50;46.50
47174;DHT22;36730;49.036;9.094;2023-02-12T08:38:00;22.50;46.50
47174;DHT22;36730;49.036;9.094;2023-02-12T08:40:26;22.50;46.50
47174;DHT22;36730;49.036;9.094;2023-02-12T08:42:51;22.50;46.50
47174;DHT22;36730;49.036;9.094;2023-02-12T08:45:17;22.50;46.50
47174;DHT22;36730;49.036;9.094;2023-02-12T08:47:42;22.50;46.50
47174;DHT22;36730;49.036;9.094;2023-02-12T08:50:08;22.50;46.50
47174;DHT22;36730;49.036;9.094;2023-02-12T08:52:34;22.50;46.50
47174;DHT22;36730;49.036;9.094;2023-02-12T08:54:59;22.50;46.50
47174;DHT22;36730;49.036;9.094;2023-02-12T08:57:25;22.60;46.60
47174;DHT22;36730;49.036;9.094;2023-02-12T08:59:50;22.50;46.50
47174;DHT22;36730;49.036;9.094;2023-02-12T09:02:16;22.60;46.50
47174;DHT22;36730;49.036;9.094;2023-02-12T09:04:41;22.50;46.50
47174;DHT22;36730;49.036;9.094;2023-02-12T09:07:07;22.60;46.60
47174;DHT22;36730;49.036;9.094;2023-02-12T09:09:32;22.60;46.50
47174;DHT22;36730;49.036;9.094;2023-02-12T09:11:58;22.50;46.40
47174;DHT22;36730;49.036;9.094;2023-02-12T09:14:23;22.60;46.50
47174;DHT22;36730;49.036;9.094;2023-02-12T09:16:49;22.60;46.50
47174;DHT22;36730;49.036;9.094;2023-02-12T09:19:16;22.60;46.50
47174;DHT22;36730;49.036;9.094;2023-02-12T09:21:42;22.60;46.50
47174;DHT22;36730;49.036;9.094;2023-02-12T09:24:07;22.60;46.50
47174;DHT22;36730;49.036;9.094;2023-02-12T09:26:33;22.60;46.50
47174;DHT22;36730;49.036;9.094;2023-02-12T09:29:00;22.60;46.50
47174;DHT22;36730;49.036;9.094;2023-02-12T09:31:26;22.60;46.50
47174;DHT22;36730;49.036;9.094;2023-02-12T09:33:53;22.60;46.50
47174;DHT22;36730;49.036;9.094;2023-02-12T09:36:19;22.60;46.50
47174;DHT22;36730;49.036;9.094;2023-02-12T09:38:45;22.60;46.50
47174;DHT22;36730;49.036;9.094;2023-02-12T09:43:41;22.60;46.50
47174;DHT22;36730;49.036;9.094;2023-02-12T09:49:06;22.60;46.40
47174;DHT22;36730;49.036;9.094;2023-02-12T09:51:33;22.60;46.50
47174;DHT22;36730;49.036;9.094;2023-02-12T09:54:00;22.60;46.40
47174;DHT22;36730;49.036;9.094;2023-02-12T09:56:27;22.60;46.40
47174;DHT22;36730;49.036;9.094;2023-02-12T10:01:19;22.60;46.40
47174;DHT22;36730;49.036;9.094;2023-02-12T10:03:45;22.70;46.40
47174;DHT22;36730;49.036;9.094;2023-02-12T10:16:11;22.70;46.40
47174;DHT22;36730;49.036;9.094;2023-02-12T10:18:41;22.70;46.40
47174;DHT22;36730;49.036;9.094;2023-02-12T10:21:19;22.70;46.40
47174;DHT22;36730;49.036;9.094;2023-02-12T10:26:30;22.70;46.40
47174;DHT22;36730;49.036;9.094;2023-02-12T10:28:57;22.70;46.40
47174;DHT22;36730;49.036;9.094;2023-02-12T10:31:24;22.70;46.60
47174;DHT22;36730;49.036;9.094;2023-02-12T10:33:52;22.70;46.40
47174;DHT22;36730;49.036;9.094;2023-02-12T10:39:36;22.70;46.30
47174;DHT22;36730;49.036;9.094;2023-02-12T10:41:44;22.80;46.40
47174;DHT22;36730;49.036;9.094;2023-02-12T10:44:10;22.80;46.40
47174;DHT22;36730;49.036;9.094;2023-02-12T10:46:36;22.80;46.40
47174;DHT22;36730;49.036;9.094;2023-02-12T10:49:02;22.80;46.40
47174;DHT22;36730;49.036;9.094;2023-02-12T10:53:53;22.80;46.40
47174;DHT22;36730;49.036;9.094;2023-02-12T10:56:20;22.80;46.40
47174;DHT22;36730;49.036;9.094;2023-02-12T10:58:56;22.80;46.40
47174;DHT22;36730;49.036;9.094;2023-02-12T11:01:26;22.80;46.40
47174;DHT22;36730;49.036;9.094;2023-02-12T11:03:55;22.80;46.40
47174;DHT22;36730;49.036;9.094;2023-02-12T11:06:23;22.80;46.40
47174;DHT22;36730;49.036;9.094;2023-02-12T11:08:50;22.80;46.40
47174;DHT22;36730;49.036;9.094;2023-02-12T11:11:22;22.90;46.50
47174;DHT22;36730;49.036;9.094;2023-02-12T11:16:29;22.80;46.50
47174;DHT22;36730;49.036;9.094;2023-02-12T11:18:58;22.80;46.50
47174;DHT22;36730;49.036;9.094;2023-02-12T11:21:24;22.80;46.40
47174;DHT22;36730;49.036;9.094;2023-02-12T11:23:50;22.90;46.60
47174;DHT22;36730;49.036;9.094;2023-02-12T11:31:28;22.90;46.60
47174;DHT22;36730;49.036;9.094;2023-02-12T11:36:28;22.90;46.60
47174;DHT22;36730;49.036;9.094;2023-02-12T11:38:54;22.90;46.50
47174;DHT22;36730;49.036;9.094;2023-02-12T11:41:31;22.90;46.50
47174;DHT22;36730;49.036;9.094;2023-02-12T11:46:35;22.90;46.60
47174;DHT22;36730;49.036;9.094;2023-02-12T11:49:00;22.90;46.60
47174;DHT22;36730;49.036;9.094;2023-02-12T11:51:27;22.90;46.50
47174;DHT22;36730;49.036;9.094;2023-02-12T11:53:54;22.90;46.40
47174;DHT22;36730;49.036;9.094;2023-02-12T11:56:21;22.90;46.50
47174;DHT22;36730;49.036;9.094;2023-02-12T11:58:47;23.00;46.60
47174;DHT22;36730;49.036;9.094;2023-02-12T12:01:14;22.90;46.60
47174;DHT22;36730;49.036;9.094;2023-02-12T12:06:14;23.00;46.60
47174;DHT22;36730;49.036;9.094;2023-02-12T12:08:44;23.00;46.50
47174;DHT22;36730;49.036;9.094;2023-02-12T12:13:43;23.00;46.50
47174;DHT22;36730;49.036;9.094;2023-02-12T12:16:17;23.00;46.50
47174;DHT22;36730;49.036;9.094;2023-02-12T12:19:11;23.00;46.50
47174;DHT22;36730;49.036;9.094;2023-02-12T12:22:06;23.00;46.40
47174;DHT22;36730;49.036;9.094;2023-02-12T12:24:37;23.10;46.50
47174;DHT22;36730;49.036;9.094;2023-02-12T12:27:18;23.10;46.50
47174;DHT22;36730;49.036;9.094;2023-02-12T12:30:06;23.10;46.40
47174;DHT22;36730;49.036;9.094;2023-02-12T12:32:35;23.10;46.50
47174;DHT22;36730;49.036;9.094;2023-02-12T12:35:03;23.10;46.50
47174;DHT22;36730;49.036;9.094;2023-02-12T12:42:49;23.10;46.50
47174;DHT22;36730;49.036;9.094;2023-02-12T13:01:35;23.10;46.40
47174;DHT22;36730;49.036;9.094;2023-02-12T13:04:18;23.10;46.40
47174;DHT22;36730;49.036;9.094;2023-02-12T13:10:02;23.20;46.40
47174;DHT22;36730;49.036;9.094;2023-02-12T13:20:26;23.30;46.40
47174;DHT22;36730;49.036;9.094;2023-02-12T13:23:14;23.30;46.30
47174;DHT22;36730;49.036;9.094;2023-02-12T13:28:27;23.30;46.20
47174;DHT22;36730;49.036;9.094;2023-02-12T13:30:53;23.40;46.30
47174;DHT22;36730;49.036;9.094;2023-02-12T13:33:41;23.40;46.20
47174;DHT22;36730;49.036;9.094;2023-02-12T13:36:05;23.40;46.20
47174;DHT22;36730;49.036;9.094;2023-02-12T13:38:36;23.40;46.10
47174;DHT22;36730;49.036;9.094;2023-02-12T13:41:04;23.40;46.20
47174;DHT22;36730;49.036;9.094;2023-02-12T13:46:20;23.40;46.10
47174;DHT22;36730;49.036;9.094;2023-02-12T13:58:55;23.60;46.00
47174;DHT22;36730;49.036;9.094;2023-02-12T14:01:43;23.60;46.00
47174;DHT22;36730;49.036;9.094;2023-02-12T14:04:15;23.60;46.00
47174;DHT22;36730;49.036;9.094;2023-02-12T14:09:20;23.60;45.90
47174;DHT22;36730;49.036;9.094;2023-02-12T14:11:47;23.70;46.00
47174;DHT22;36730;49.036;9.094;2023-02-12T14:14:20;23.70;46.00
47174;DHT22;36730;49.036;9.094;2023-02-12T14:16:48;23.60;45.90
47174;DHT22;36730;49.036;9.094;2023-02-12T14:21:58;23.70;45.90
47174;DHT22;36730;49.036;9.094;2023-02-12T14:27:05;23.70;45.90
47174;DHT22;36730;49.036;9.094;2023-02-12T14:29:35;23.70;46.00
47174;DHT22;36730;49.036;9.094;2023-02-12T14:32:01;23.70;46.00
47174;DHT22;36730;49.036;9.094;2023-02-12T14:37:08;23.80;46.10
47174;DHT22;36730;49.036;9.094;2023-02-12T14:39:34;23.70;45.90
47174;DHT22;36730;49.036;9.094;2023-02-12T14:47:00;23.80;45.90
47174;DHT22;36730;49.036;9.094;2023-02-12T14:49:42;23.80;45.90
47174;DHT22;36730;49.036;9.094;2023-02-12T14:54:53;23.80;45.90
47174;DHT22;36730;49.036;9.094;2023-02-12T14:57:38;23.80;45.80
47174;DHT22;36730;49.036;9.094;2023-02-12T15:02:49;23.80;45.80
47174;DHT22;36730;49.036;9.094;2023-02-12T15:06:00;23.90;45.80
47174;DHT22;36730;49.036;9.094;2023-02-12T15:10:46;23.90;45.80
47174;DHT22;36730;49.036;9.094;2023-02-12T15:13:23;23.90;45.80
47174;DHT22;36730;49.036;9.094;2023-02-12T15:21:22;23.90;45.80
47174;DHT22;36730;49.036;9.094;2023-02-12T15:24:10;23.90;45.80
47174;DHT22;36730;49.036;9.094;2023-02-12T15:26:41;23.90;45.80
47174;DHT22;36730;49.036;9.094;2023-02-12T15:29:42;23.90;45.90
47174;DHT22;36730;49.036;9.094;2023-02-12T15:32:01;24.00;45.80
47174;DHT22;36730;49.036;9.094;2023-02-12T15:34:32;23.90;45.80
47174;DHT22;36730;49.036;9.094;2023-02-12T15:36:59;23.90;45.80
47174;DHT22;36730;49.036;9.094;2023-02-12T15:39:25;23.90;45.80
47174;DHT22;36730;49.036;9.094;2023-02-12T15:41:50;23.90;45.90
47174;DHT22;36730;49.036;9.094;2023-02-12T15:49:48;23.90;45.90
47174;DHT22;36730;49.036;9.094;2023-02-12T15:52:18;23.90;45.90
47174;DHT22;36730;49.036;9.094;2023-02-12T15:54:44;23.90;46.00
47174;DHT22;36730;49.036;9.094;2023-02-12T15:57:11;23.90;46.10
47174;DHT22;36730;49.036;9.094;2023-02-12T15:59:37;23.90;46.00
47174;DHT22;36730;49.036;9.094;2023-02-12T16:02:02;23.90;46.10
47174;DHT22;36730;49.036;9.094;2023-02-12T16:04:30;23.80;46.00
47174;DHT22;36730;49.036;9.094;2023-02-12T16:06:56;23.90;46.10
47174;DHT22;36730;49.036;9.094;2023-02-12T16:09:24;23.80;46.20
47174;DHT22;36730;49.036;9.094;2023-02-12T16:11:53;23.80;46.10
47174;DHT22;36730;49.036;9.094;2023-02-12T16:14:21;23.80;46.20
47174;DHT22;36730;49.036;9.094;2023-02-12T16:16:48;23.80;46.20
47174;DHT22;36730;49.036;9.094;2023-02-12T16:19:21;23.80;46.30
47174;DHT22;36730;49.036;9.094;2023-02-12T16:21:48;23.80;46.20
47174;DHT22;36730;49.036;9.094;2023-02-12T16:24:24;23.70;46.30
47174;DHT22;36730;49.036;9.094;2023-02-12T16:26:50;23.70;46.30
47174;DHT22;36730;49.036;9.094;2023-02-12T16:29:16;23.70;46.30
47174;DHT22;36730;49.036;9.094;2023-02-12T16:31:53;23.70;46.40
47174;DHT22;36730;49.036;9.094;2023-02-12T16:34:29;23.70;46.40
47174;DHT22;36730;49.036;9.094;2023-02-12T16:36:55;23.60;46.40
47174;DHT22;36730;49.036;9.094;2023-02-12T16:42:15;23.70;46.50
47174;DHT22;36730;49.036;9.094;2023-02-12T16:44:43;23.60;46.50
47174;DHT22;36730;49.036;9.094;2023-02-12T16:47:11;23.60;46.60
47174;DHT22;36730;49.036;9.094;2023-02-12T16:49:50;23.60;46.60
47174;DHT22;36730;49.036;9.094;2023-02-12T16:52:17;23.60;46.70
47174;DHT22;36730;49.036;9.094;2023-02-12T16:54:43;23.60;46.70
47174;DHT22;36730;49.036;9.094;2023-02-12T16:57:08;23.60;46.70
47174;DHT22;36730;49.036;9.094;2023-02-12T16:59:35;23.60;46.70
47174;DHT22;36730;49.036;9.094;2023-02-12T17:02:09;23.60;46.70
47174;DHT22;36730;49.036;9.094;2023-02-12T17:04:35;23.60;46.80
47174;DHT22;36730;49.036;9.094;2023-02-12T17:07:00;23.60;46.80
47174;DHT22;36730;49.036;9.094;2023-02-12T17:09:26;23.60;46.80
47174;DHT22;36730;49.036;9.094;2023-02-12T17:11:54;23.50;46.70
47174;DHT22;36730;49.036;9.094;2023-02-12T17:14:20;23.60;46.80
47174;DHT22;36730;49.036;9.094;2023-02-12T17:16:45;23.50;46.80
47174;DHT22;36730;49.036;9.094;2023-02-12T17:19:11;23.60;46.80
47174;DHT22;36730;49.036;9.094;2023-02-12T17:21:37;23.60;46.80
47174;DHT22;36730;49.036;9.094;2023-02-12T17:24:05;23.50;46.70
47174;DHT22;36730;49.036;9.094;2023-02-12T17:26:30;23.50;46.80
47174;DHT22;36730;49.036;9.094;2023-02-12T17:28:56;23.50;46.80
47174;DHT22;36730;49.036;9.094;2023-02-12T17:31:33;23.40;46.80
47174;DHT22;36730;49.036;9.094;2023-02-12T17:33:58;23.40;46.90
47174;DHT22;36730;49.036;9.094;2023-02-12T17:36:24;23.40;46.90
47174;DHT22;36730;49.036;9.094;2023-02-12T17:38:49;23.40;46.90
47174;DHT22;36730;49.036;9.094;2023-02-12T17:41:15;23.40;46.90
47174;DHT22;36730;49.036;9.094;2023-02-12T17:43:41;23.40;46.90
47174;DHT22;36730;49.036;9.094;2023-02-12T17:46:10;23.40;46.90
47174;DHT22;36730;49.036;9.094;2023-02-12T17:48:37;23.30;46.90
47174;DHT22;36730;49.036;9.094;2023-02-12T17:51:02;23.40;46.90
47174;DHT22;36730;49.036;9.094;2023-02-12T17:53:28;23.30;46.90
47174;DHT22;36730;49.036;9.094;2023-02-12T17:55:53;23.30;46.90
47174;DHT22;36730;49.036;9.094;2023-02-12T17:58:19;23.30;46.90
47174;DHT22;36730;49.036;9.094;2023-02-12T18:00:44;23.30;46.90
47174;DHT22;36730;49.036;9.094;2023-02-12T18:03:09;23.30;46.90
47174;DHT22;36730;49.036;9.094;2023-02-12T18:05:41;23.30;46.90
47174;DHT22;36730;49.036;9.094;2023-02-12T18:08:07;23.30;46.90
47174;DHT22;36730;49.036;9.094;2023-02-12T18:10:37;23.30;46.80
47174;DHT22;36730;49.036;9.094;2023-02-12T18:13:03;23.30;47.00
47174;DHT22;36730;49.036;9.094;2023-02-12T18:15:28;23.20;46.90
47174;DHT22;36730;49.036;9.094;2023-02-12T18:17:54;23.20;46.90
47174;DHT22;36730;49.036;9.094;2023-02-12T18:20:19;23.20;46.90
47174;DHT22;36730;49.036;9.094;2023-02-12T18:22:45;23.20;46.90
47174;DHT22;36730;49.036;9.094;2023-02-12T18:25:11;23.20;46.90
47174;DHT22;36730;49.036;9.094;2023-02-12T18:27:36;23.20;46.90